createdAt,value
2023-05-10T00:04:01.525Z,12.95
2023-05-10T00:09:05.688Z,12.95
2023-05-10T00:14:09.747Z,12.92
2023-05-10T00:19:14.021Z,12.91
2023-05-10T00:24:18.110Z,12.93
2023-05-10T00:29:22.306Z,12.90
2023-05-10T00:34:26.458Z,12.90
2023-05-10T00:39:30.678Z,12.89
2023-05-10T00:44:34.804Z,12.91
2023-05-10T00:49:38.964Z,12.91
2023-05-10T00:54:43.104Z,12.91
2023-05-10T00:59:47.269Z,12.90
2023-05-10T01:04:51.459Z,12.90
2023-05-10T01:09:55.586Z,12.88
2023-05-10T01:14:59.732Z,12.88
2023-05-10T01:20:03.907Z,12.89
2023-05-10T01:25:08.082Z,12.87
2023-05-10T01:30:15.931Z,12.90
2023-05-10T01:35:16.377Z,12.92
2023-05-10T01:40:20.600Z,12.92
2023-05-10T01:45:24.692Z,12.88
2023-05-10T01:50:28.890Z,12.89
2023-05-10T01:55:32.979Z,12.83
2023-05-10T02:00:37.269Z,12.71
2023-05-10T02:05:41.383Z,12.69
2023-05-10T02:10:45.636Z,12.66
2023-05-10T02:15:49.654Z,12.61
2023-05-10T02:20:53.851Z,12.58
2023-05-10T02:25:58.024Z,12.56
2023-05-10T02:31:02.096Z,12.51
2023-05-10T02:36:06.322Z,12.45
2023-05-10T02:41:10.454Z,12.48
2023-05-10T02:46:14.655Z,12.41
2023-05-10T02:51:18.838Z,12.37
2023-05-10T02:56:22.956Z,12.32
2023-05-10T03:01:27.152Z,12.27
2023-05-10T03:06:31.262Z,12.24
2023-05-10T03:11:35.461Z,12.20
2023-05-10T03:16:39.672Z,12.20
2023-05-10T03:21:43.792Z,12.17
2023-05-10T03:26:47.903Z,12.13
2023-05-10T03:31:52.177Z,12.13
2023-05-10T03:36:56.225Z,12.11
2023-05-10T03:42:00.466Z,12.11
2023-05-10T03:47:02.857Z,12.09
2023-05-10T03:52:06.851Z,12.11
2023-05-10T03:57:11.041Z,12.12
2023-05-10T04:02:15.206Z,12.11
2023-05-10T04:07:19.272Z,12.11
2023-05-10T04:12:23.492Z,12.13
2023-05-10T04:17:25.791Z,12.13
2023-05-10T04:22:29.937Z,12.13
2023-05-10T04:27:34.020Z,12.15
2023-05-10T04:32:38.231Z,12.16
2023-05-10T04:37:42.386Z,12.19
2023-05-10T04:42:46.628Z,12.20
2023-05-10T04:47:50.774Z,12.25
2023-05-10T04:52:54.895Z,12.26
2023-05-10T04:57:59.037Z,12.25
2023-05-10T05:03:03.334Z,12.29
2023-05-10T05:08:07.383Z,12.33
2023-05-10T05:13:11.492Z,12.34
2023-05-10T05:18:15.702Z,12.38
2023-05-10T05:23:19.875Z,12.45
2023-05-10T05:28:24.014Z,12.49
2023-05-10T05:33:28.342Z,12.52
2023-05-10T05:38:32.330Z,12.58
2023-05-10T05:43:38.319Z,12.69
2023-05-10T05:48:40.633Z,12.73
2023-05-10T05:53:44.810Z,12.72
2023-05-10T05:58:48.926Z,12.83
2023-05-10T06:03:53.584Z,12.80
2023-05-10T06:08:57.271Z,12.85
2023-05-10T06:14:01.482Z,12.94
2023-05-10T06:19:05.591Z,12.97
2023-05-10T06:24:09.819Z,13.11
2023-05-10T06:29:13.928Z,13.27
2023-05-10T06:34:18.086Z,13.31
2023-05-10T06:39:22.244Z,13.37
2023-05-10T06:44:26.423Z,13.45
2023-05-10T06:49:30.561Z,13.59
2023-05-10T06:54:34.757Z,13.69
2023-05-10T06:59:39.020Z,13.70
2023-05-10T07:04:43.104Z,13.96
2023-05-10T07:09:47.253Z,14.11
2023-05-10T07:14:51.394Z,14.17
2023-05-10T07:19:55.544Z,14.34
2023-05-10T07:24:59.723Z,14.46
2023-05-10T07:30:03.860Z,14.56
2023-05-10T07:35:08.103Z,14.57
2023-05-10T07:40:12.192Z,14.45
2023-05-10T07:45:16.582Z,14.55
2023-05-10T07:50:20.481Z,14.90
2023-05-10T07:55:24.608Z,15.04
2023-05-10T08:00:28.781Z,14.98
2023-05-10T08:05:35.238Z,14.95
2023-05-10T08:10:37.120Z,14.91
2023-05-10T08:15:41.321Z,15.10
2023-05-10T08:20:45.459Z,15.12
2023-05-10T08:25:49.649Z,14.87
2023-05-10T08:30:53.790Z,14.84
2023-05-10T08:35:57.884Z,14.83
2023-05-10T08:41:02.132Z,15.01
2023-05-10T08:46:06.376Z,15.18
2023-05-10T08:51:10.432Z,15.47
2023-05-10T08:56:14.565Z,15.70
2023-05-10T09:01:18.791Z,16.07
2023-05-10T09:06:22.937Z,16.16
2023-05-10T09:11:27.024Z,16.28
2023-05-10T09:16:31.214Z,16.48
2023-05-10T09:21:35.397Z,16.61
2023-05-10T09:26:39.519Z,16.95
2023-05-10T09:31:43.650Z,16.93
2023-05-10T09:36:47.823Z,16.97
2023-05-10T09:41:52.006Z,17.33
2023-05-10T09:46:54.256Z,17.19
2023-05-10T09:51:58.402Z,17.48
2023-05-10T09:57:02.595Z,17.31
2023-05-10T10:02:06.786Z,17.59
2023-05-10T10:07:10.933Z,17.27
2023-05-10T10:12:15.048Z,17.15
2023-05-10T10:17:19.253Z,17.03
2023-05-10T10:22:23.386Z,16.98
2023-05-10T10:27:27.559Z,16.76
2023-05-10T10:32:31.714Z,16.28
2023-05-10T10:37:35.825Z,16.37
2023-05-10T10:42:39.956Z,16.61
2023-05-10T10:47:44.268Z,16.88
2023-05-10T10:52:48.354Z,16.94
2023-05-10T10:57:52.463Z,17.17
2023-05-10T11:02:56.694Z,17.14
2023-05-10T11:08:00.854Z,16.90
2023-05-10T11:13:04.975Z,16.75
2023-05-10T11:18:09.139Z,16.74
2023-05-10T11:23:13.281Z,16.84
2023-05-10T11:28:17.490Z,16.84
2023-05-10T11:33:21.592Z,16.89
2023-05-10T11:38:25.783Z,16.92
2023-05-10T11:43:29.925Z,16.83
2023-05-10T11:48:34.114Z,16.50
2023-05-10T11:53:38.272Z,16.29
2023-05-10T11:58:42.395Z,16.20
2023-05-10T12:03:46.791Z,16.30
2023-05-10T12:08:50.766Z,16.73
2023-05-10T12:13:54.866Z,16.99
2023-05-10T12:18:59.162Z,16.64
2023-05-10T12:24:03.286Z,16.59
2023-05-10T12:29:07.394Z,16.71
2023-05-10T12:34:11.541Z,17.02
2023-05-10T12:39:15.649Z,17.20
2023-05-10T12:44:19.837Z,17.10
2023-05-10T12:49:24.002Z,17.26
2023-05-10T12:54:28.181Z,17.28
2023-05-10T12:59:32.315Z,17.64
2023-05-10T13:04:36.522Z,17.84
2023-05-10T13:09:40.642Z,17.77
2023-05-10T13:14:44.804Z,18.03
2023-05-10T13:19:48.962Z,18.17
2023-05-10T13:24:53.123Z,18.21
2023-05-10T13:29:57.296Z,18.52
2023-05-10T13:35:01.448Z,19.30
2023-05-10T13:40:05.560Z,19.41
2023-05-10T13:45:09.736Z,19.65
2023-05-10T13:50:13.934Z,19.99
2023-05-10T13:55:18.310Z,19.89
2023-05-10T14:00:22.389Z,19.89
2023-05-10T14:05:26.965Z,19.92
2023-05-10T14:10:30.596Z,19.73
2023-05-10T14:15:34.728Z,19.71
2023-05-10T14:20:38.893Z,19.97
2023-05-10T14:25:42.989Z,20.06
2023-05-10T14:30:47.182Z,20.09
2023-05-10T14:35:51.316Z,19.98
2023-05-10T14:40:55.546Z,19.76
2023-05-10T14:45:59.679Z,20.04
2023-05-10T14:51:03.859Z,20.13
2023-05-10T14:56:07.979Z,19.80
2023-05-10T15:01:12.219Z,19.51
2023-05-10T15:06:16.277Z,19.35
2023-05-10T15:11:20.486Z,19.54
2023-05-10T15:16:22.805Z,19.68
2023-05-10T15:21:26.865Z,19.78
2023-05-10T15:26:31.038Z,19.50
2023-05-10T15:31:35.239Z,18.96
2023-05-10T15:36:39.341Z,18.99
2023-05-10T15:41:43.484Z,19.39
2023-05-10T15:46:47.638Z,20.12
2023-05-10T15:51:51.817Z,20.43
2023-05-10T15:56:55.997Z,20.10
2023-05-10T16:02:00.170Z,19.22
2023-05-10T16:07:04.314Z,18.67
2023-05-10T16:12:08.465Z,18.17
2023-05-10T16:17:13.061Z,17.96
2023-05-10T16:22:16.797Z,18.53
2023-05-10T16:27:20.928Z,19.06
2023-05-10T16:32:25.157Z,18.72
2023-05-10T16:37:29.239Z,18.81
2023-05-10T16:42:33.411Z,18.51
2023-05-10T16:47:37.634Z,18.33
2023-05-10T16:52:41.783Z,19.40
2023-05-10T17:02:50.187Z,19.03
2023-05-10T17:07:54.212Z,18.77
2023-05-10T17:12:58.400Z,18.29
2023-05-10T17:18:02.581Z,18.07
2023-05-10T17:23:06.715Z,17.43
2023-05-10T17:28:10.881Z,17.11
2023-05-10T17:33:15.001Z,16.69
2023-05-10T17:38:19.224Z,16.25
2023-05-10T17:43:23.419Z,15.98
2023-05-10T17:48:27.517Z,15.79
2023-05-10T17:53:31.660Z,15.56
2023-05-10T17:58:35.836Z,15.38
2023-05-10T18:03:39.969Z,15.24
2023-05-10T18:08:44.153Z,15.04
2023-05-10T18:13:48.303Z,14.99
2023-05-10T18:18:52.500Z,14.91
2023-05-10T18:23:56.661Z,14.73
2023-05-10T18:29:01.730Z,14.61
2023-05-10T18:34:04.939Z,14.56
2023-05-10T18:39:09.216Z,14.43
2023-05-10T18:44:15.286Z,14.27
2023-05-10T18:49:17.422Z,14.20
2023-05-10T18:54:21.574Z,14.14
2023-05-10T18:59:25.756Z,14.11
2023-05-10T19:04:29.965Z,14.11
2023-05-10T19:09:34.054Z,14.02
2023-05-10T19:14:38.217Z,13.92
2023-05-10T19:19:43.934Z,13.84
2023-05-10T19:24:46.627Z,13.73
2023-05-10T19:29:50.709Z,13.72
2023-05-10T19:34:54.888Z,13.66
2023-05-10T19:39:59.073Z,13.60
2023-05-10T19:45:03.177Z,13.57
2023-05-10T19:50:07.433Z,13.52
2023-05-10T19:55:11.499Z,13.55
2023-05-10T20:00:15.670Z,13.51
2023-05-10T20:05:19.908Z,13.45
2023-05-10T20:10:25.796Z,13.37
2023-05-10T20:15:28.158Z,13.29
2023-05-10T20:20:32.332Z,13.20
2023-05-10T20:25:36.468Z,13.17
2023-05-10T20:30:40.607Z,13.18
2023-05-10T20:35:44.798Z,13.18
2023-05-10T20:40:48.941Z,13.01
2023-05-10T20:45:51.210Z,12.93
2023-05-10T20:50:55.427Z,12.85
2023-05-10T20:55:59.515Z,12.87
2023-05-10T21:01:03.679Z,12.87
2023-05-10T21:06:07.810Z,12.79
2023-05-10T21:11:11.995Z,12.67
2023-05-10T21:16:14.309Z,12.57
2023-05-10T21:21:18.462Z,12.54
2023-05-10T21:26:22.608Z,12.54
2023-05-10T21:31:26.757Z,12.52
2023-05-10T21:36:30.941Z,12.51
2023-05-10T21:41:35.087Z,12.51
2023-05-10T21:46:39.289Z,12.50
2023-05-10T21:51:43.378Z,12.50
2023-05-10T21:56:47.528Z,12.51
2023-05-10T22:01:51.701Z,12.49
2023-05-10T22:06:55.852Z,12.45
2023-05-10T22:12:00.036Z,12.42
2023-05-10T22:17:04.219Z,12.40
2023-05-10T22:22:08.408Z,12.34
2023-05-10T22:27:12.538Z,12.29
2023-05-10T22:32:16.684Z,12.33
2023-05-10T22:37:20.861Z,12.32
2023-05-10T22:42:25.078Z,12.26
2023-05-10T22:47:29.158Z,12.25
2023-05-10T22:52:33.361Z,12.23
2023-05-10T22:57:37.479Z,12.23
2023-05-10T23:02:41.724Z,12.21
2023-05-10T23:07:45.783Z,12.20
2023-05-10T23:12:49.974Z,12.14
2023-05-10T23:17:54.169Z,12.05
2023-05-10T23:22:58.333Z,12.06
2023-05-10T23:28:02.484Z,12.08
2023-05-10T23:33:06.677Z,12.03
2023-05-10T23:38:10.765Z,11.94
2023-05-10T23:43:14.971Z,11.85
2023-05-10T23:48:19.061Z,11.78
2023-05-10T23:53:23.270Z,11.65
2023-05-10T23:58:27.400Z,11.52
